sensor_id;sensor_type;location;lat;lon;timestamp;P1;durP1;ratioP1;P2;durP2;ratioP2
3131;SDS011;62090;52.330;9.104;2022-10-24T00:00:25;18.10;;;2.20;;
3131;SDS011;62090;52.330;9.104;2022-10-24T00:02:55;18.77;;;2.57;;
3131;SDS011;62090;52.330;9.104;2022-10-24T00:05:25;4.53;;;2.20;;
3131;SDS011;62090;52.330;9.104;2022-10-24T00:07:55;8.00;;;1.93;;
3131;SDS011;62090;52.330;9.104;2022-10-24T00:10:24;15.00;;;2.20;;
3131;SDS011;62090;52.330;9.104;2022-10-24T00:12:57;5.70;;;2.00;;
3131;SDS011;62090;52.330;9.104;2022-10-24T00:15:27;6.47;;;2.43;;
3131;SDS011;62090;52.330;9.104;2022-10-24T00:17:56;5.23;;;2.13;;
3131;SDS011;62090;52.330;9.104;2022-10-24T00:20:26;14.40;;;2.27;;
3131;SDS011;62090;52.330;9.104;2022-10-24T00:22:56;10.20;;;2.37;;
3131;SDS011;62090;52.330;9.104;2022-10-24T00:25:26;8.30;;;2.40;;
3131;SDS011;62090;52.330;9.104;2022-10-24T00:27:58;3.23;;;2.00;;
3131;SDS011;62090;52.330;9.104;2022-10-24T00:30:28;6.50;;;2.47;;
3131;SDS011;62090;52.330;9.104;2022-10-24T00:32:58;8.17;;;2.20;;
3131;SDS011;62090;52.330;9.104;2022-10-24T00:35:27;10.67;;;1.93;;
3131;SDS011;62090;52.330;9.104;2022-10-24T00:37:58;5.00;;;2.20;;
3131;SDS011;62090;52.330;9.104;2022-10-24T00:40:27;6.57;;;2.50;;
3131;SDS011;62090;52.330;9.104;2022-10-24T00:43:00;15.60;;;2.50;;
3131;SDS011;62090;52.330;9.104;2022-10-24T00:45:38;15.60;;;2.67;;
3131;SDS011;62090;52.330;9.104;2022-10-24T00:48:12;7.53;;;2.53;;
3131;SDS011;62090;52.330;9.104;2022-10-24T00:50:45;6.40;;;2.67;;
3131;SDS011;62090;52.330;9.104;2022-10-24T00:53:17;14.10;;;2.60;;
3131;SDS011;62090;52.330;9.104;2022-10-24T00:55:49;8.63;;;2.90;;
3131;SDS011;62090;52.330;9.104;2022-10-24T00:58:25;11.30;;;2.30;;
3131;SDS011;62090;52.330;9.104;2022-10-24T01:00:57;5.40;;;2.33;;
3131;SDS011;62090;52.330;9.104;2022-10-24T01:03:27;10.80;;;3.20;;
3131;SDS011;62090;52.330;9.104;2022-10-24T01:06:05;6.43;;;2.27;;
3131;SDS011;62090;52.330;9.104;2022-10-24T01:08:54;4.77;;;2.73;;
3131;SDS011;62090;52.330;9.104;2022-10-24T01:11:35;5.93;;;2.93;;
3131;SDS011;62090;52.330;9.104;2022-10-24T01:14:23;17.67;;;3.03;;
3131;SDS011;62090;52.330;9.104;2022-10-24T01:17:03;13.07;;;2.80;;
3131;SDS011;62090;52.330;9.104;2022-10-24T01:19:46;8.73;;;3.00;;
3131;SDS011;62090;52.330;9.104;2022-10-24T01:22:36;7.27;;;3.10;;
3131;SDS011;62090;52.330;9.104;2022-10-24T01:25:16;17.43;;;3.17;;
3131;SDS011;62090;52.330;9.104;2022-10-24T01:27:59;9.57;;;3.20;;
3131;SDS011;62090;52.330;9.104;2022-10-24T01:30:36;9.60;;;2.83;;
3131;SDS011;62090;52.330;9.104;2022-10-24T01:33:13;9.30;;;3.00;;
3131;SDS011;62090;52.330;9.104;2022-10-24T01:35:49;10.60;;;2.53;;
3131;SDS011;62090;52.330;9.104;2022-10-24T01:38:23;6.67;;;2.70;;
3131;SDS011;62090;52.330;9.104;2022-10-24T01:40:57;14.87;;;3.30;;
3131;SDS011;62090;52.330;9.104;2022-10-24T01:43:32;8.67;;;3.30;;
3131;SDS011;62090;52.330;9.104;2022-10-24T01:46:08;9.30;;;2.80;;
3131;SDS011;62090;52.330;9.104;2022-10-24T01:48:43;13.70;;;3.30;;
3131;SDS011;62090;52.330;9.104;2022-10-24T01:51:15;14.33;;;3.50;;
3131;SDS011;62090;52.330;9.104;2022-10-24T01:53:47;7.47;;;3.27;;
3131;SDS011;62090;52.330;9.104;2022-10-24T01:56:19;12.73;;;3.30;;
3131;SDS011;62090;52.330;9.104;2022-10-24T01:58:49;13.17;;;3.00;;
3131;SDS011;62090;52.330;9.104;2022-10-24T02:01:22;8.33;;;2.83;;
3131;SDS011;62090;52.330;9.104;2022-10-24T02:03:54;20.20;;;3.90;;
3131;SDS011;62090;52.330;9.104;2022-10-24T02:06:27;10.13;;;3.00;;
3131;SDS011;62090;52.330;9.104;2022-10-24T02:09:02;4.93;;;2.57;;
3131;SDS011;62090;52.330;9.104;2022-10-24T02:11:35;12.43;;;2.90;;
3131;SDS011;62090;52.330;9.104;2022-10-24T02:14:08;6.30;;;2.93;;
3131;SDS011;62090;52.330;9.104;2022-10-24T02:16:45;11.57;;;3.60;;
3131;SDS011;62090;52.330;9.104;2022-10-24T02:19:15;16.30;;;3.50;;
3131;SDS011;62090;52.330;9.104;2022-10-24T02:21:48;8.17;;;3.00;;
3131;SDS011;62090;52.330;9.104;2022-10-24T02:24:25;12.70;;;3.23;;
3131;SDS011;62090;52.330;9.104;2022-10-24T02:27:00;13.43;;;3.50;;
3131;SDS011;62090;52.330;9.104;2022-10-24T02:29:35;4.97;;;3.07;;
3131;SDS011;62090;52.330;9.104;2022-10-24T02:32:13;10.00;;;2.67;;
3131;SDS011;62090;52.330;9.104;2022-10-24T02:34:48;7.67;;;2.90;;
3131;SDS011;62090;52.330;9.104;2022-10-24T02:37:18;10.03;;;2.53;;
3131;SDS011;62090;52.330;9.104;2022-10-24T02:39:50;13.47;;;3.00;;
3131;SDS011;62090;52.330;9.104;2022-10-24T02:42:23;13.97;;;3.00;;
3131;SDS011;62090;52.330;9.104;2022-10-24T02:44:55;12.47;;;3.30;;
3131;SDS011;62090;52.330;9.104;2022-10-24T02:47:28;4.63;;;3.03;;
3131;SDS011;62090;52.330;9.104;2022-10-24T02:50:00;8.87;;;3.00;;
3131;SDS011;62090;52.330;9.104;2022-10-24T02:52:30;6.87;;;2.70;;
3131;SDS011;62090;52.330;9.104;2022-10-24T02:55:00;4.97;;;2.70;;
3131;SDS011;62090;52.330;9.104;2022-10-24T02:57:30;7.70;;;2.90;;
3131;SDS011;62090;52.330;9.104;2022-10-24T03:00:00;7.63;;;3.17;;
3131;SDS011;62090;52.330;9.104;2022-10-24T03:02:33;7.57;;;2.80;;
3131;SDS011;62090;52.330;9.104;2022-10-24T03:05:03;10.00;;;3.87;;
3131;SDS011;62090;52.330;9.104;2022-10-24T03:07:33;5.40;;;2.77;;
3131;SDS011;62090;52.330;9.104;2022-10-24T03:10:03;8.70;;;3.43;;
3131;SDS011;62090;52.330;9.104;2022-10-24T03:12:33;6.17;;;2.67;;
3131;SDS011;62090;52.330;9.104;2022-10-24T03:15:03;8.10;;;3.40;;
3131;SDS011;62090;52.330;9.104;2022-10-24T03:17:36;6.43;;;3.00;;
3131;SDS011;62090;52.330;9.104;2022-10-24T03:20:06;10.73;;;2.40;;
3131;SDS011;62090;52.330;9.104;2022-10-24T03:22:37;8.27;;;3.03;;
3131;SDS011;62090;52.330;9.104;2022-10-24T03:25:07;10.40;;;2.93;;
3131;SDS011;62090;52.330;9.104;2022-10-24T03:27:37;9.47;;;2.37;;
3131;SDS011;62090;52.330;9.104;2022-10-24T03:30:08;4.33;;;1.80;;
3131;SDS011;62090;52.330;9.104;2022-10-24T03:32:41;7.93;;;2.70;;
3131;SDS011;62090;52.330;9.104;2022-10-24T03:35:11;16.43;;;2.93;;
3131;SDS011;62090;52.330;9.104;2022-10-24T03:37:42;11.00;;;2.43;;
3131;SDS011;62090;52.330;9.104;2022-10-24T03:40:11;9.30;;;2.50;;
3131;SDS011;62090;52.330;9.104;2022-10-24T03:42:42;8.97;;;3.10;;
3131;SDS011;62090;52.330;9.104;2022-10-24T03:45:12;8.13;;;2.47;;
3131;SDS011;62090;52.330;9.104;2022-10-24T03:47:44;10.17;;;3.30;;
3131;SDS011;62090;52.330;9.104;2022-10-24T03:50:14;7.87;;;3.47;;
3131;SDS011;62090;52.330;9.104;2022-10-24T03:52:44;14.20;;;2.77;;
3131;SDS011;62090;52.330;9.104;2022-10-24T03:55:14;9.50;;;3.47;;
3131;SDS011;62090;52.330;9.104;2022-10-24T03:57:44;5.67;;;2.67;;
3131;SDS011;62090;52.330;9.104;2022-10-24T04:00:13;11.97;;;3.13;;
3131;SDS011;62090;52.330;9.104;2022-10-24T04:02:47;5.17;;;2.87;;
3131;SDS011;62090;52.330;9.104;2022-10-24T04:05:18;8.77;;;3.50;;
3131;SDS011;62090;52.330;9.104;2022-10-24T04:07:47;7.70;;;3.40;;
3131;SDS011;62090;52.330;9.104;2022-10-24T04:10:17;9.90;;;3.13;;
3131;SDS011;62090;52.330;9.104;2022-10-24T04:12:47;26.27;;;4.40;;
3131;SDS011;62090;52.330;9.104;2022-10-24T04:15:17;10.20;;;3.60;;
3131;SDS011;62090;52.330;9.104;2022-10-24T04:17:50;5.63;;;2.90;;
3131;SDS011;62090;52.330;9.104;2022-10-24T04:20:19;12.50;;;2.90;;
3131;SDS011;62090;52.330;9.104;2022-10-24T04:22:49;9.10;;;3.00;;
3131;SDS011;62090;52.330;9.104;2022-10-24T04:25:19;13.43;;;3.17;;
3131;SDS011;62090;52.330;9.104;2022-10-24T04:27:49;11.53;;;3.20;;
3131;SDS011;62090;52.330;9.104;2022-10-24T04:30:18;10.00;;;3.40;;
3131;SDS011;62090;52.330;9.104;2022-10-24T04:32:51;13.53;;;3.50;;
3131;SDS011;62090;52.330;9.104;2022-10-24T04:35:22;10.63;;;3.30;;
3131;SDS011;62090;52.330;9.104;2022-10-24T04:37:52;10.70;;;3.93;;
3131;SDS011;62090;52.330;9.104;2022-10-24T04:40:22;13.83;;;3.83;;
3131;SDS011;62090;52.330;9.104;2022-10-24T04:42:51;12.07;;;3.43;;
3131;SDS011;62090;52.330;9.104;2022-10-24T04:45:21;15.03;;;3.40;;
3131;SDS011;62090;52.330;9.104;2022-10-24T04:47:54;18.03;;;3.50;;
3131;SDS011;62090;52.330;9.104;2022-10-24T04:50:23;11.50;;;3.53;;
3131;SDS011;62090;52.330;9.104;2022-10-24T04:52:53;17.17;;;3.47;;
3131;SDS011;62090;52.330;9.104;2022-10-24T04:55:23;14.87;;;3.80;;
3131;SDS011;62090;52.330;9.104;2022-10-24T04:57:53;12.63;;;4.10;;
3131;SDS011;62090;52.330;9.104;2022-10-24T05:00:23;20.50;;;3.63;;
3131;SDS011;62090;52.330;9.104;2022-10-24T05:02:56;9.00;;;3.20;;
3131;SDS011;62090;52.330;9.104;2022-10-24T05:05:25;12.87;;;3.37;;
3131;SDS011;62090;52.330;9.104;2022-10-24T05:07:55;9.10;;;3.57;;
3131;SDS011;62090;52.330;9.104;2022-10-24T05:10:26;19.20;;;4.03;;
3131;SDS011;62090;52.330;9.104;2022-10-24T05:12:57;7.60;;;3.50;;
3131;SDS011;62090;52.330;9.104;2022-10-24T05:15:27;11.43;;;3.00;;
3131;SDS011;62090;52.330;9.104;2022-10-24T05:18:00;16.33;;;3.77;;
3131;SDS011;62090;52.330;9.104;2022-10-24T05:20:31;16.43;;;3.63;;
3131;SDS011;62090;52.330;9.104;2022-10-24T05:23:02;9.80;;;3.37;;
3131;SDS011;62090;52.330;9.104;2022-10-24T05:25:32;20.33;;;3.80;;
3131;SDS011;62090;52.330;9.104;2022-10-24T05:28:02;23.17;;;4.67;;
3131;SDS011;62090;52.330;9.104;2022-10-24T05:30:32;5.73;;;3.13;;
3131;SDS011;62090;52.330;9.104;2022-10-24T05:33:05;9.20;;;3.90;;
3131;SDS011;62090;52.330;9.104;2022-10-24T05:35:34;16.20;;;3.70;;
3131;SDS011;62090;52.330;9.104;2022-10-24T05:38:05;11.77;;;4.07;;
3131;SDS011;62090;52.330;9.104;2022-10-24T05:40:35;7.53;;;3.73;;
3131;SDS011;62090;52.330;9.104;2022-10-24T05:43:06;8.70;;;4.00;;
3131;SDS011;62090;52.330;9.104;2022-10-24T05:45:38;11.60;;;3.97;;
3131;SDS011;62090;52.330;9.104;2022-10-24T05:48:11;14.20;;;3.80;;
3131;SDS011;62090;52.330;9.104;2022-10-24T05:50:42;21.77;;;4.27;;
3131;SDS011;62090;52.330;9.104;2022-10-24T05:53:11;10.57;;;3.93;;
3131;SDS011;62090;52.330;9.104;2022-10-24T05:55:42;13.47;;;4.20;;
3131;SDS011;62090;52.330;9.104;2022-10-24T05:58:13;14.53;;;4.60;;
3131;SDS011;62090;52.330;9.104;2022-10-24T06:00:48;13.43;;;3.60;;
3131;SDS011;62090;52.330;9.104;2022-10-24T06:03:22;12.93;;;4.40;;
3131;SDS011;62090;52.330;9.104;2022-10-24T06:05:52;11.53;;;3.90;;
3131;SDS011;62090;52.330;9.104;2022-10-24T06:08:22;11.68;;;3.67;;
3131;SDS011;62090;52.330;9.104;2022-10-24T06:10:53;11.10;;;3.60;;
3131;SDS011;62090;52.330;9.104;2022-10-24T06:13:24;13.37;;;3.70;;
3131;SDS011;62090;52.330;9.104;2022-10-24T06:16:00;16.13;;;4.30;;
3131;SDS011;62090;52.330;9.104;2022-10-24T06:18:33;21.03;;;4.50;;
3131;SDS011;62090;52.330;9.104;2022-10-24T06:21:05;17.23;;;3.30;;
3131;SDS011;62090;52.330;9.104;2022-10-24T06:23:37;14.53;;;3.90;;
3131;SDS011;62090;52.330;9.104;2022-10-24T06:26:08;18.63;;;4.10;;
3131;SDS011;62090;52.330;9.104;2022-10-24T06:28:41;15.73;;;4.13;;
3131;SDS011;62090;52.330;9.104;2022-10-24T06:31:12;14.10;;;4.10;;
3131;SDS011;62090;52.330;9.104;2022-10-24T06:33:44;13.23;;;4.70;;
3131;SDS011;62090;52.330;9.104;2022-10-24T06:36:15;7.70;;;3.37;;
3131;SDS011;62090;52.330;9.104;2022-10-24T06:38:46;14.83;;;4.67;;
3131;SDS011;62090;52.330;9.104;2022-10-24T06:41:16;11.50;;;4.20;;
3131;SDS011;62090;52.330;9.104;2022-10-24T06:43:46;8.20;;;3.60;;
3131;SDS011;62090;52.330;9.104;2022-10-24T06:46:19;11.37;;;3.60;;
3131;SDS011;62090;52.330;9.104;2022-10-24T06:48:54;18.60;;;3.43;;
3131;SDS011;62090;52.330;9.104;2022-10-24T06:51:25;19.50;;;3.90;;
3131;SDS011;62090;52.330;9.104;2022-10-24T06:53:56;20.53;;;4.13;;
3131;SDS011;62090;52.330;9.104;2022-10-24T06:56:26;18.73;;;4.13;;
3131;SDS011;62090;52.330;9.104;2022-10-24T06:58:56;14.17;;;3.50;;
3131;SDS011;62090;52.330;9.104;2022-10-24T07:01:27;18.53;;;3.80;;
3131;SDS011;62090;52.330;9.104;2022-10-24T07:04:00;19.60;;;3.40;;
3131;SDS011;62090;52.330;9.104;2022-10-24T07:06:32;13.53;;;3.10;;
3131;SDS011;62090;52.330;9.104;2022-10-24T07:09:03;19.57;;;4.37;;
3131;SDS011;62090;52.330;9.104;2022-10-24T07:11:41;17.90;;;3.50;;
3131;SDS011;62090;52.330;9.104;2022-10-24T07:14:11;18.97;;;3.47;;
3131;SDS011;62090;52.330;9.104;2022-10-24T07:16:42;16.87;;;3.60;;
3131;SDS011;62090;52.330;9.104;2022-10-24T07:19:15;18.23;;;4.10;;
3131;SDS011;62090;52.330;9.104;2022-10-24T07:21:47;11.23;;;3.90;;
3131;SDS011;62090;52.330;9.104;2022-10-24T07:24:18;11.10;;;4.03;;
3131;SDS011;62090;52.330;9.104;2022-10-24T07:26:49;11.73;;;3.50;;
3131;SDS011;62090;52.330;9.104;2022-10-24T07:29:20;13.27;;;3.40;;
3131;SDS011;62090;52.330;9.104;2022-10-24T07:31:51;17.33;;;3.33;;
3131;SDS011;62090;52.330;9.104;2022-10-24T07:34:24;19.10;;;3.60;;
3131;SDS011;62090;52.330;9.104;2022-10-24T07:36:55;7.40;;;3.27;;
3131;SDS011;62090;52.330;9.104;2022-10-24T07:39:30;20.57;;;4.03;;
3131;SDS011;62090;52.330;9.104;2022-10-24T07:42:02;14.00;;;3.50;;
3131;SDS011;62090;52.330;9.104;2022-10-24T07:44:33;20.60;;;4.00;;
3131;SDS011;62090;52.330;9.104;2022-10-24T07:47:04;15.57;;;4.00;;
3131;SDS011;62090;52.330;9.104;2022-10-24T07:49:39;11.80;;;4.03;;
3131;SDS011;62090;52.330;9.104;2022-10-24T07:52:10;10.00;;;3.60;;
3131;SDS011;62090;52.330;9.104;2022-10-24T07:54:40;10.53;;;3.40;;
3131;SDS011;62090;52.330;9.104;2022-10-24T07:57:10;11.90;;;3.90;;
3131;SDS011;62090;52.330;9.104;2022-10-24T07:59:41;13.90;;;3.60;;
3131;SDS011;62090;52.330;9.104;2022-10-24T08:02:12;13.43;;;3.30;;
3131;SDS011;62090;52.330;9.104;2022-10-24T08:04:48;20.33;;;3.00;;
3131;SDS011;62090;52.330;9.104;2022-10-24T08:07:18;9.63;;;3.10;;
3131;SDS011;62090;52.330;9.104;2022-10-24T08:09:50;9.30;;;3.10;;
3131;SDS011;62090;52.330;9.104;2022-10-24T08:12:21;11.73;;;3.10;;
3131;SDS011;62090;52.330;9.104;2022-10-24T08:14:51;10.17;;;3.30;;
3131;SDS011;62090;52.330;9.104;2022-10-24T08:17:21;6.57;;;2.27;;
3131;SDS011;62090;52.330;9.104;2022-10-24T08:19:54;5.50;;;2.60;;
3131;SDS011;62090;52.330;9.104;2022-10-24T08:22:25;10.77;;;2.73;;
3131;SDS011;62090;52.330;9.104;2022-10-24T08:24:56;6.67;;;2.10;;
3131;SDS011;62090;52.330;9.104;2022-10-24T08:27:29;9.40;;;3.00;;
3131;SDS011;62090;52.330;9.104;2022-10-24T08:30:01;12.17;;;3.10;;
3131;SDS011;62090;52.330;9.104;2022-10-24T08:32:33;9.20;;;2.33;;
3131;SDS011;62090;52.330;9.104;2022-10-24T08:35:08;13.83;;;3.57;;
3131;SDS011;62090;52.330;9.104;2022-10-24T08:37:40;9.57;;;2.77;;
3131;SDS011;62090;52.330;9.104;2022-10-24T08:40:11;12.43;;;3.30;;
3131;SDS011;62090;52.330;9.104;2022-10-24T08:42:45;9.53;;;3.27;;
3131;SDS011;62090;52.330;9.104;2022-10-24T08:45:20;5.13;;;2.50;;
3131;SDS011;62090;52.330;9.104;2022-10-24T08:47:57;13.13;;;2.20;;
3131;SDS011;62090;52.330;9.104;2022-10-24T08:50:35;10.00;;;2.67;;
3131;SDS011;62090;52.330;9.104;2022-10-24T08:53:11;10.83;;;2.63;;
3131;SDS011;62090;52.330;9.104;2022-10-24T08:55:47;9.60;;;2.50;;
3131;SDS011;62090;52.330;9.104;2022-10-24T08:58:22;2.90;;;1.87;;
3131;SDS011;62090;52.330;9.104;2022-10-24T09:00:55;14.30;;;2.50;;
3131;SDS011;62090;52.330;9.104;2022-10-24T09:03:30;7.43;;;2.30;;
3131;SDS011;62090;52.330;9.104;2022-10-24T09:06:29;12.03;;;2.27;;
3131;SDS011;62090;52.330;9.104;2022-10-24T09:09:02;10.63;;;2.43;;
3131;SDS011;62090;52.330;9.104;2022-10-24T09:11:38;11.23;;;2.23;;
3131;SDS011;62090;52.330;9.104;2022-10-24T09:14:15;7.60;;;1.93;;
3131;SDS011;62090;52.330;9.104;2022-10-24T09:16:48;8.53;;;1.53;;
3131;SDS011;62090;52.330;9.104;2022-10-24T09:19:23;6.73;;;1.50;;
3131;SDS011;62090;52.330;9.104;2022-10-24T09:21:58;11.20;;;1.90;;
3131;SDS011;62090;52.330;9.104;2022-10-24T09:24:31;7.60;;;1.83;;
3131;SDS011;62090;52.330;9.104;2022-10-24T09:27:10;6.97;;;1.63;;
3131;SDS011;62090;52.330;9.104;2022-10-24T09:29:46;6.60;;;2.07;;
3131;SDS011;62090;52.330;9.104;2022-10-24T09:32:21;3.47;;;1.73;;
3131;SDS011;62090;52.330;9.104;2022-10-24T09:34:57;5.07;;;1.70;;
3131;SDS011;62090;52.330;9.104;2022-10-24T09:37:34;13.80;;;1.70;;
3131;SDS011;62090;52.330;9.104;2022-10-24T09:40:15;7.70;;;1.73;;
3131;SDS011;62090;52.330;9.104;2022-10-24T09:42:50;16.17;;;1.87;;
3131;SDS011;62090;52.330;9.104;2022-10-24T09:45:36;4.97;;;1.57;;
3131;SDS011;62090;52.330;9.104;2022-10-24T09:48:18;2.93;;;1.30;;
3131;SDS011;62090;52.330;9.104;2022-10-24T09:50:57;4.90;;;1.77;;
3131;SDS011;62090;52.330;9.104;2022-10-24T09:53:32;7.93;;;1.70;;
3131;SDS011;62090;52.330;9.104;2022-10-24T09:56:06;11.30;;;1.60;;
3131;SDS011;62090;52.330;9.104;2022-10-24T09:58:39;9.40;;;1.87;;
3131;SDS011;62090;52.330;9.104;2022-10-24T10:01:17;5.27;;;1.77;;
3131;SDS011;62090;52.330;9.104;2022-10-24T10:03:59;9.20;;;2.50;;
3131;SDS011;62090;52.330;9.104;2022-10-24T10:06:36;14.27;;;2.40;;
3131;SDS011;62090;52.330;9.104;2022-10-24T10:09:22;8.30;;;1.93;;
3131;SDS011;62090;52.330;9.104;2022-10-24T10:11:58;9.63;;;2.03;;
3131;SDS011;62090;52.330;9.104;2022-10-24T10:14:29;6.37;;;1.80;;
3131;SDS011;62090;52.330;9.104;2022-10-24T10:17:01;22.83;;;1.70;;
3131;SDS011;62090;52.330;9.104;2022-10-24T10:19:34;4.67;;;1.33;;
3131;SDS011;62090;52.330;9.104;2022-10-24T10:22:19;5.20;;;1.70;;
3131;SDS011;62090;52.330;9.104;2022-10-24T10:24:55;7.73;;;1.60;;
3131;SDS011;62090;52.330;9.104;2022-10-24T10:27:28;4.90;;;1.53;;
3131;SDS011;62090;52.330;9.104;2022-10-24T10:30:09;13.03;;;2.20;;
3131;SDS011;62090;52.330;9.104;2022-10-24T10:32:50;7.43;;;1.80;;
3131;SDS011;62090;52.330;9.104;2022-10-24T10:35:29;8.80;;;1.50;;
3131;SDS011;62090;52.330;9.104;2022-10-24T10:38:10;7.20;;;1.97;;
3131;SDS011;62090;52.330;9.104;2022-10-24T10:40:59;8.47;;;2.17;;
3131;SDS011;62090;52.330;9.104;2022-10-24T10:43:36;6.60;;;2.10;;
3131;SDS011;62090;52.330;9.104;2022-10-24T10:46:13;6.60;;;1.83;;
3131;SDS011;62090;52.330;9.104;2022-10-24T10:48:58;4.50;;;1.43;;
3131;SDS011;62090;52.330;9.104;2022-10-24T10:51:40;15.37;;;1.70;;
3131;SDS011;62090;52.330;9.104;2022-10-24T10:54:18;6.43;;;1.53;;
3131;SDS011;62090;52.330;9.104;2022-10-24T10:57:12;4.30;;;1.60;;
3131;SDS011;62090;52.330;9.104;2022-10-24T10:59:47;4.23;;;1.63;;
3131;SDS011;62090;52.330;9.104;2022-10-24T11:02:33;6.63;;;1.90;;
3131;SDS011;62090;52.330;9.104;2022-10-24T11:05:22;10.43;;;1.77;;
3131;SDS011;62090;52.330;9.104;2022-10-24T11:08:04;12.77;;;1.53;;
3131;SDS011;62090;52.330;9.104;2022-10-24T11:10:48;7.97;;;1.70;;
3131;SDS011;62090;52.330;9.104;2022-10-24T11:13:26;9.17;;;1.80;;
3131;SDS011;62090;52.330;9.104;2022-10-24T11:16:04;7.63;;;1.70;;
3131;SDS011;62090;52.330;9.104;2022-10-24T11:18:42;9.30;;;2.00;;
3131;SDS011;62090;52.330;9.104;2022-10-24T11:21:17;6.87;;;1.60;;
3131;SDS011;62090;52.330;9.104;2022-10-24T11:23:51;8.43;;;1.83;;
3131;SDS011;62090;52.330;9.104;2022-10-24T11:26:25;9.27;;;1.80;;
3131;SDS011;62090;52.330;9.104;2022-10-24T11:29:07;9.53;;;1.67;;
3131;SDS011;62090;52.330;9.104;2022-10-24T11:31:44;16.63;;;1.47;;
3131;SDS011;62090;52.330;9.104;2022-10-24T11:34:18;12.63;;;1.90;;
3131;SDS011;62090;52.330;9.104;2022-10-24T11:36:53;12.50;;;1.87;;
3131;SDS011;62090;52.330;9.104;2022-10-24T11:39:29;15.87;;;2.83;;
3131;SDS011;62090;52.330;9.104;2022-10-24T11:42:06;6.63;;;1.70;;
3131;SDS011;62090;52.330;9.104;2022-10-24T11:44:50;9.87;;;1.90;;
3131;SDS011;62090;52.330;9.104;2022-10-24T11:47:40;7.93;;;2.10;;
3131;SDS011;62090;52.330;9.104;2022-10-24T11:50:20;8.17;;;1.80;;
3131;SDS011;62090;52.330;9.104;2022-10-24T11:52:57;10.80;;;1.70;;
3131;SDS011;62090;52.330;9.104;2022-10-24T11:55:35;11.00;;;1.73;;
3131;SDS011;62090;52.330;9.104;2022-10-24T11:58:09;8.37;;;1.10;;
3131;SDS011;62090;52.330;9.104;2022-10-24T12:00:56;10.23;;;1.70;;
3131;SDS011;62090;52.330;9.104;2022-10-24T12:03:46;6.43;;;1.90;;
3131;SDS011;62090;52.330;9.104;2022-10-24T12:06:41;11.63;;;1.80;;
3131;SDS011;62090;52.330;9.104;2022-10-24T12:09:35;8.40;;;1.50;;
3131;SDS011;62090;52.330;9.104;2022-10-24T12:12:21;5.80;;;1.57;;
3131;SDS011;62090;52.330;9.104;2022-10-24T12:15:08;8.53;;;1.80;;
3131;SDS011;62090;52.330;9.104;2022-10-24T12:18:03;8.73;;;1.53;;
3131;SDS011;62090;52.330;9.104;2022-10-24T12:20:37;6.47;;;1.20;;
3131;SDS011;62090;52.330;9.104;2022-10-24T12:23:15;5.40;;;1.60;;
3131;SDS011;62090;52.330;9.104;2022-10-24T12:26:00;5.03;;;1.70;;
3131;SDS011;62090;52.330;9.104;2022-10-24T12:28:31;7.00;;;1.57;;
3131;SDS011;62090;52.330;9.104;2022-10-24T12:31:17;14.93;;;1.90;;
3131;SDS011;62090;52.330;9.104;2022-10-24T12:37:08;5.20;;;1.77;;
3131;SDS011;62090;52.330;9.104;2022-10-24T12:39:41;10.03;;;1.90;;
3131;SDS011;62090;52.330;9.104;2022-10-24T12:42:14;5.47;;;1.87;;
3131;SDS011;62090;52.330;9.104;2022-10-24T12:45:22;6.87;;;1.80;;
3131;SDS011;62090;52.330;9.104;2022-10-24T12:50:58;4.87;;;1.87;;
3131;SDS011;62090;52.330;9.104;2022-10-24T12:53:37;7.10;;;1.43;;
3131;SDS011;62090;52.330;9.104;2022-10-24T12:56:31;5.93;;;1.70;;
3131;SDS011;62090;52.330;9.104;2022-10-24T12:59:15;6.60;;;1.83;;
3131;SDS011;62090;52.330;9.104;2022-10-24T13:01:49;9.33;;;1.80;;
3131;SDS011;62090;52.330;9.104;2022-10-24T13:04:41;5.73;;;1.80;;
3131;SDS011;62090;52.330;9.104;2022-10-24T13:07:34;10.43;;;2.10;;
3131;SDS011;62090;52.330;9.104;2022-10-24T13:10:26;7.20;;;1.73;;
3131;SDS011;62090;52.330;9.104;2022-10-24T13:13:11;15.37;;;2.20;;
3131;SDS011;62090;52.330;9.104;2022-10-24T13:15:56;9.80;;;2.27;;
3131;SDS011;62090;52.330;9.104;2022-10-24T13:18:36;6.40;;;1.73;;
3131;SDS011;62090;52.330;9.104;2022-10-24T13:21:16;10.13;;;2.13;;
3131;SDS011;62090;52.330;9.104;2022-10-24T13:24:08;12.67;;;2.17;;
3131;SDS011;62090;52.330;9.104;2022-10-24T13:26:44;11.50;;;1.97;;
3131;SDS011;62090;52.330;9.104;2022-10-24T13:29:57;6.83;;;1.83;;
3131;SDS011;62090;52.330;9.104;2022-10-24T13:32:34;5.67;;;1.70;;
3131;SDS011;62090;52.330;9.104;2022-10-24T13:35:05;2.83;;;1.00;;
3131;SDS011;62090;52.330;9.104;2022-10-24T13:37:47;7.70;;;1.80;;
3131;SDS011;62090;52.330;9.104;2022-10-24T13:40:28;8.50;;;1.50;;
3131;SDS011;62090;52.330;9.104;2022-10-24T13:43:04;6.20;;;1.70;;
3131;SDS011;62090;52.330;9.104;2022-10-24T13:45:43;9.33;;;2.17;;
3131;SDS011;62090;52.330;9.104;2022-10-24T13:48:18;11.40;;;1.73;;
3131;SDS011;62090;52.330;9.104;2022-10-24T13:50:54;4.30;;;1.20;;
3131;SDS011;62090;52.330;9.104;2022-10-24T13:53:40;7.70;;;2.10;;
3131;SDS011;62090;52.330;9.104;2022-10-24T13:56:16;9.20;;;1.73;;
3131;SDS011;62090;52.330;9.104;2022-10-24T13:58:49;10.33;;;1.60;;
3131;SDS011;62090;52.330;9.104;2022-10-24T14:01:21;7.73;;;1.63;;
3131;SDS011;62090;52.330;9.104;2022-10-24T14:03:56;7.13;;;1.97;;
3131;SDS011;62090;52.330;9.104;2022-10-24T14:06:30;10.70;;;1.70;;
3131;SDS011;62090;52.330;9.104;2022-10-24T14:09:03;7.37;;;1.90;;
3131;SDS011;62090;52.330;9.104;2022-10-24T14:11:38;11.37;;;1.77;;
3131;SDS011;62090;52.330;9.104;2022-10-24T14:14:24;6.60;;;2.30;;
3131;SDS011;62090;52.330;9.104;2022-10-24T14:17:06;12.87;;;1.90;;
3131;SDS011;62090;52.330;9.104;2022-10-24T14:19:49;6.50;;;1.47;;
3131;SDS011;62090;52.330;9.104;2022-10-24T14:22:22;7.90;;;1.80;;
3131;SDS011;62090;52.330;9.104;2022-10-24T14:24:55;5.80;;;1.47;;
3131;SDS011;62090;52.330;9.104;2022-10-24T14:27:26;9.87;;;2.23;;
3131;SDS011;62090;52.330;9.104;2022-10-24T14:30:01;13.20;;;1.47;;
3131;SDS011;62090;52.330;9.104;2022-10-24T14:32:32;8.63;;;1.53;;
3131;SDS011;62090;52.330;9.104;2022-10-24T14:35:03;3.57;;;1.30;;
3131;SDS011;62090;52.330;9.104;2022-10-24T14:37:34;9.33;;;1.90;;
3131;SDS011;62090;52.330;9.104;2022-10-24T14:40:10;8.40;;;1.70;;
3131;SDS011;62090;52.330;9.104;2022-10-24T14:45:27;6.20;;;1.23;;
3131;SDS011;62090;52.330;9.104;2022-10-24T14:47:58;8.27;;;1.80;;
3131;SDS011;62090;52.330;9.104;2022-10-24T14:50:31;4.20;;;1.50;;
3131;SDS011;62090;52.330;9.104;2022-10-24T14:53:04;6.13;;;1.37;;
3131;SDS011;62090;52.330;9.104;2022-10-24T14:55:34;7.17;;;1.60;;
3131;SDS011;62090;52.330;9.104;2022-10-24T14:58:05;6.30;;;1.40;;
3131;SDS011;62090;52.330;9.104;2022-10-24T15:00:51;9.60;;;1.80;;
3131;SDS011;62090;52.330;9.104;2022-10-24T15:03:22;6.53;;;1.30;;
3131;SDS011;62090;52.330;9.104;2022-10-24T15:05:54;8.07;;;1.83;;
3131;SDS011;62090;52.330;9.104;2022-10-24T15:08:26;5.30;;;1.30;;
3131;SDS011;62090;52.330;9.104;2022-10-24T15:11:13;5.90;;;1.53;;
3131;SDS011;62090;52.330;9.104;2022-10-24T15:13:48;8.80;;;2.23;;
3131;SDS011;62090;52.330;9.104;2022-10-24T15:16:36;11.80;;;2.10;;
3131;SDS011;62090;52.330;9.104;2022-10-24T15:19:12;7.30;;;1.93;;
3131;SDS011;62090;52.330;9.104;2022-10-24T15:21:45;8.40;;;2.10;;
3131;SDS011;62090;52.330;9.104;2022-10-24T15:24:18;4.90;;;1.33;;
3131;SDS011;62090;52.330;9.104;2022-10-24T15:26:51;9.10;;;2.00;;
3131;SDS011;62090;52.330;9.104;2022-10-24T15:29:40;5.60;;;1.20;;
3131;SDS011;62090;52.330;9.104;2022-10-24T15:32:14;8.13;;;1.90;;
3131;SDS011;62090;52.330;9.104;2022-10-24T15:34:44;6.07;;;1.53;;
3131;SDS011;62090;52.330;9.104;2022-10-24T15:37:16;6.77;;;1.43;;
3131;SDS011;62090;52.330;9.104;2022-10-24T15:39:48;8.17;;;2.27;;
3131;SDS011;62090;52.330;9.104;2022-10-24T15:42:19;6.53;;;1.80;;
3131;SDS011;62090;52.330;9.104;2022-10-24T15:44:49;15.30;;;2.10;;
3131;SDS011;62090;52.330;9.104;2022-10-24T15:47:22;13.53;;;2.40;;
3131;SDS011;62090;52.330;9.104;2022-10-24T15:49:53;7.47;;;2.17;;